Time;durP1;ratioP1;P1;durP2;ratioP2;P2;SDS_P1;SDS_P2;PMS_P1;PMS_P2;Temp;Humidity;BMP_temperature;BMP_pressure;BME280_temperature;BME280_humidity;BME280_pressure;Samples;Min_cycle;Max_cycle;Signal;HPM_P1;HPM_P2
2023/12/21 00:00:14;;;;;;;21.13;14.65;;;5.20;96.70;;;;;;6088984;23;20141;-63
2023/12/21 00:02:46;;;;;;;20.02;14.90;;;5.20;96.70;;;;;;6043292;23;20406;-62
2023/12/21 00:06:02;;;;;;;28.52;18.35;;;5.10;96.70;;;;;;6048286;23;20117;-63
2023/12/21 00:13:17;;;;;;;25.73;16.83;;;5.30;96.70;;;;;;6146752;23;20106;-63
2023/12/21 00:15:49;;;;;;;22.80;16.50;;;5.30;96.70;;;;;;6215772;23;20435;-63
2023/12/21 00:23:26;;;;;;;20.83;15.13;;;5.20;96.70;;;;;;6242558;23;20023;-62
2023/12/21 00:26:34;;;;;;;22.92;15.90;;;5.20;96.70;;;;;;6103527;23;20084;-62
2023/12/21 00:29:22;;;;;;;23.73;15.35;;;5.10;96.70;;;;;;6072521;23;20093;-63
2023/12/21 00:40:18;;;;;;;36.33;16.23;;;4.90;96.70;;;;;;6030923;23;20398;-63
2023/12/21 00:42:47;;;;;;;26.20;17.02;;;4.80;96.70;;;;;;6031736;23;20027;-63
2023/12/21 00:46:02;;;;;;;25.30;15.57;;;4.70;96.70;;;;;;6094687;23;20152;-63
2023/12/21 00:48:42;;;;;;;32.28;16.38;;;4.70;96.70;;;;;;6119369;23;20117;-62
2023/12/21 00:51:49;;;;;;;20.88;14.85;;;4.70;96.70;;;;;;6115171;23;20033;-63
2023/12/21 00:54:19;;;;;;;22.35;15.32;;;4.60;96.70;;;;;;6094467;23;20026;-62
2023/12/21 01:05:11;;;;;;;18.80;14.48;;;4.80;96.70;;;;;;6090822;23;20032;-63
2023/12/21 01:07:41;;;;;;;20.05;13.55;;;4.80;96.70;;;;;;6091580;23;20026;-63
2023/12/21 01:10:11;;;;;;;18.75;13.68;;;4.90;96.70;;;;;;6093017;23;20149;-63
2023/12/21 01:12:52;;;;;;;21.00;14.05;;;4.80;96.70;;;;;;6103816;23;20030;-62
2023/12/21 01:15:53;;;;;;;17.00;12.77;;;4.70;96.70;;;;;;6102098;23;20029;-63
2023/12/21 01:23:26;;;;;;;16.50;12.10;;;4.60;96.70;;;;;;6151258;23;20080;-62
2023/12/21 01:25:53;;;;;;;30.00;13.70;;;4.70;96.70;;;;;;6126272;23;20409;-62
2023/12/21 01:29:01;;;;;;;22.60;13.90;;;4.70;96.70;;;;;;6102222;23;20105;-62
2023/12/21 01:31:38;;;;;;;18.23;12.88;;;4.70;96.70;;;;;;6124025;23;20055;-63
2023/12/21 01:37:48;;;;;;;15.43;12.40;;;4.70;96.70;;;;;;6023877;23;20189;-62
2023/12/21 01:41:06;;;;;;;19.63;12.05;;;4.60;96.70;;;;;;6013213;23;20178;-63
2023/12/21 01:43:49;;;;;;;15.00;11.75;;;4.60;96.70;;;;;;6195033;23;20019;-62
2023/12/21 01:46:18;;;;;;;18.50;12.90;;;4.60;96.70;;;;;;6191954;23;20031;-62
2023/12/21 01:54:08;;;;;;;20.17;12.63;;;4.60;96.70;;;;;;6244664;23;20468;-62
2023/12/21 02:01:19;;;;;;;27.13;13.93;;;4.60;96.70;;;;;;6197817;23;20023;-62
2023/12/21 02:16:12;;;;;;;34.55;13.63;;;4.70;96.70;;;;;;6216373;23;20023;-62
2023/12/21 02:19:13;;;;;;;;;;;;;;;;;;;;;
2023/12/21 02:21:54;;;;;;;22.02;14.15;;;4.60;96.70;;;;;;6216188;23;20019;-62
2023/12/21 02:28:23;;;;;;;60.83;15.77;;;4.60;96.70;;;;;;6091450;23;20476;-62
2023/12/21 02:35:25;;;;;;;31.25;13.68;;;4.60;96.70;;;;;;6216671;23;20016;-62
2023/12/21 02:38:19;;;;;;;27.25;15.13;;;4.70;96.70;;;;;;6167441;23;20024;-62
2023/12/21 02:40:58;;;;;;;42.85;15.20;;;4.70;96.70;;;;;;6217318;23;20019;-62
2023/12/21 02:43:26;;;;;;;28.63;14.93;;;4.70;96.70;;;;;;6216205;23;20020;-62
2023/12/21 02:45:55;;;;;;;41.15;15.80;;;4.70;96.70;;;;;;6191545;23;20070;-63
2023/12/21 02:49:02;;;;;;;26.83;15.07;;;4.70;96.70;;;;;;6170462;23;20038;-62
2023/12/21 02:51:46;;;;;;;26.50;14.60;;;4.70;96.70;;;;;;6193942;23;20020;-62
2023/12/21 02:54:15;;;;;;;27.70;14.00;;;4.80;96.70;;;;;;6214769;23;20020;-62
2023/12/21 02:57:25;;;;;;;28.55;15.88;;;4.90;96.70;;;;;;6155345;23;20036;-62
2023/12/21 03:00:32;;;;;;;36.75;15.00;;;4.90;96.70;;;;;;6194894;23;20101;-62
2023/12/21 03:03:01;;;;;;;20.10;13.15;;;4.90;96.70;;;;;;6161166;23;20025;-63
2023/12/21 03:06:51;;;;;;;;;;;;;;;;;;;;;
2023/12/21 03:09:22;;;;;;;22.00;12.77;;;5.00;96.70;;;;;;6186719;23;20035;-62
2023/12/21 03:11:52;;;;;;;30.48;13.43;;;5.00;96.70;;;;;;6161761;23;20028;-63
2023/12/21 03:14:22;;;;;;;20.05;11.98;;;5.10;96.70;;;;;;6138300;23;20091;-62
2023/12/21 03:17:23;;;;;;;22.73;12.48;;;5.00;96.70;;;;;;6211819;23;20443;-62
2023/12/21 03:20:30;;;;;;;22.10;12.35;;;5.10;96.70;;;;;;6190191;23;20900;-62
2023/12/21 03:23:03;;;;;;;24.40;12.82;;;5.20;96.70;;;;;;6161926;23;20028;-62
2023/12/21 03:25:32;;;;;;;27.52;13.77;;;5.20;96.70;;;;;;6186487;23;20028;-62
2023/12/21 03:28:05;;;;;;;24.20;12.98;;;5.20;96.70;;;;;;6186355;23;20111;-63
2023/12/21 03:31:19;;;;;;;30.63;14.13;;;5.20;96.70;;;;;;6186022;23;20048;-62
2023/12/21 03:39:23;;;;;;;33.45;13.18;;;5.20;96.70;;;;;;6091473;23;20013;-63
2023/12/21 03:42:35;;;;;;;19.25;12.63;;;5.20;96.70;;;;;;6120264;23;20028;-62
2023/12/21 03:45:20;;;;;;;25.25;12.60;;;5.20;96.70;;;;;;6094919;23;20021;-63
2023/12/21 03:47:52;;;;;;;20.35;11.52;;;5.00;96.70;;;;;;6094575;23;20022;-62
2023/12/21 03:54:22;;;;;;;19.48;10.07;;;4.90;96.70;;;;;;6119664;23;20609;-62
2023/12/21 03:57:35;;;;;;;13.00;9.57;;;4.80;96.70;;;;;;5987203;23;20391;-62
2023/12/21 04:01:23;;;;;;;13.38;8.77;;;4.80;96.70;;;;;;6003494;23;20171;-63
2023/12/21 04:04:46;;;;;;;13.00;9.10;;;4.80;96.70;;;;;;5991660;23;20485;-62
2023/12/21 04:11:25;;;;;;;18.75;8.88;;;4.60;96.70;;;;;;6090805;23;20097;-62
2023/12/21 04:13:54;;;;;;;12.90;9.40;;;4.60;96.70;;;;;;6067064;23;20022;-62
2023/12/21 04:19:48;;;;;;;17.02;8.52;;;4.80;96.70;;;;;;6059822;23;20022;-62
2023/12/21 04:22:17;;;;;;;17.48;9.38;;;4.80;96.70;;;;;;6090464;23;20033;-62
2023/12/21 04:24:56;;;;;;;;;;;;;;;;;;;;;
2023/12/21 04:27:33;;;;;;;40.33;10.05;;;4.80;96.70;;;;;;6091235;23;20034;-62
2023/12/21 04:31:28;;;;;;;;;;;;;;;;;;;;;
2023/12/21 04:35:07;;;;;;;17.00;8.88;;;4.70;96.70;;;;;;6212178;23;20067;-62
2023/12/21 04:37:51;;;;;;;18.05;9.63;;;4.90;96.70;;;;;;6185756;23;20475;-63
2023/12/21 04:40:20;;;;;;;19.90;10.18;;;4.90;96.70;;;;;;6185645;23;20482;-63
2023/12/21 04:42:57;;;;;;;16.95;9.63;;;4.80;96.70;;;;;;6188329;23;20477;-62
2023/12/21 04:46:11;;;;;;;15.20;9.65;;;4.90;96.70;;;;;;6209303;23;20414;-62
2023/12/21 04:49:22;;;;;;;16.27;9.35;;;5.00;96.70;;;;;;6171610;22;20031;-62
2023/12/21 04:51:51;;;;;;;21.50;10.02;;;5.00;96.70;;;;;;6210763;23;20024;-63
2023/12/21 04:54:25;;;;;;;21.08;10.07;;;5.00;96.70;;;;;;6210312;23;20047;-62
2023/12/21 04:56:54;;;;;;;26.67;10.13;;;5.00;96.70;;;;;;6186231;23;20024;-62
2023/12/21 05:00:07;;;;;;;25.45;9.70;;;4.90;96.70;;;;;;6162315;23;20051;-62
2023/12/21 05:02:53;;;;;;;;;;;4.80;96.70;;;;;;6191045;23;20111;-62
2023/12/21 05:05:22;;;;;;;17.67;9.05;;;4.80;96.70;;;;;;6163096;23;19919;-63
2023/12/21 05:08:11;;;;;;;15.40;9.32;;;4.70;96.70;;;;;;6191760;23;20107;-62
2023/12/21 05:10:50;;;;;;;19.27;9.85;;;4.80;96.70;;;;;;6162630;23;20351;-62
2023/12/21 05:13:42;;;;;;;28.25;9.75;;;4.80;96.70;;;;;;6118873;23;20024;-62
2023/12/21 05:17:31;;;;;;;22.02;9.18;;;4.70;96.70;;;;;;6193065;23;20502;-63
2023/12/21 05:20:03;;;;;;;14.80;9.45;;;4.70;96.70;;;;;;6147729;23;20028;-62
2023/12/21 05:22:32;;;;;;;19.88;8.82;;;4.70;96.70;;;;;;6187440;23;20099;-63
2023/12/21 05:25:00;;;;;;;12.30;9.02;;;4.80;96.70;;;;;;6162401;23;20021;-63
2023/12/21 05:27:31;;;;;;;11.85;8.27;;;4.80;96.70;;;;;;6164029;23;20032;-63
2023/12/21 05:29:59;;;;;;;15.00;8.20;;;4.90;96.70;;;;;;6152102;23;20063;-63
2023/12/21 05:32:30;;;;;;;13.10;7.55;;;4.80;96.70;;;;;;6126633;23;20074;-63
2023/12/21 05:34:59;;;;;;;17.95;8.25;;;4.80;96.70;;;;;;6126194;23;20460;-63
2023/12/21 05:41:28;;;;;;;;;;;;;;;;;;;;;
2023/12/21 05:45:15;;;;;;;21.92;8.52;;;4.50;96.70;;;;;;6062658;23;20026;-63
2023/12/21 05:48:22;;;;;;;16.30;8.27;;;4.70;96.70;;;;;;6036096;23;20105;-63
2023/12/21 05:50:52;;;;;;;16.98;7.80;;;4.70;96.70;;;;;;6063145;23;20030;-63
2023/12/21 05:54:41;;;;;;;14.65;7.43;;;4.60;96.70;;;;;;6040014;23;20037;-62
2023/12/21 06:05:49;;;;;;;16.38;7.47;;;4.60;96.70;;;;;;6005707;23;20435;-63
2023/12/21 06:08:47;;;;;;;19.42;7.55;;;4.60;96.70;;;;;;6027988;23;20067;-62
2023/12/21 06:11:29;;;;;;;12.18;6.78;;;4.50;96.70;;;;;;6011573;23;20112;-63
2023/12/21 06:14:07;;;;;;;23.98;7.38;;;4.40;96.70;;;;;;6060140;23;20032;-63
2023/12/21 06:16:37;;;;;;;13.98;7.65;;;4.40;96.70;;;;;;6101456;23;20021;-62
2023/12/21 06:19:54;;;;;;;19.20;7.47;;;4.50;96.70;;;;;;6126136;23;20026;-62
2023/12/21 06:22:23;;;;;;;15.85;8.63;;;4.50;96.70;;;;;;6125849;23;20025;-63
2023/12/21 06:25:32;;;;;;;10.88;7.15;;;4.50;96.70;;;;;;6133172;23;20145;-62
2023/12/21 06:28:17;;;;;;;23.70;7.38;;;4.60;96.70;;;;;;6128527;23;20149;-62
2023/12/21 06:30:52;;;;;;;21.45;7.60;;;4.70;96.70;;;;;;6125775;23;20476;-63
2023/12/21 06:34:03;;;;;;;14.15;7.43;;;4.70;96.70;;;;;;6133825;23;20031;-63
2023/12/21 06:36:47;;;;;;;13.82;7.93;;;4.70;96.70;;;;;;6106498;23;20089;-63
2023/12/21 06:39:20;;;;;;;14.88;7.72;;;4.80;96.70;;;;;;6187408;23;20040;-63
2023/12/21 06:41:51;;;;;;;13.45;7.93;;;4.90;96.70;;;;;;6186924;23;20032;-63
2023/12/21 06:45:32;;;;;;;12.90;7.47;;;4.80;96.70;;;;;;6213849;23;20088;-63
2023/12/21 06:51:57;;;;;;;11.70;7.28;;;4.70;96.70;;;;;;6120225;23;20137;-63
2023/12/21 06:54:52;;;;;;;18.73;7.68;;;4.80;96.70;;;;;;6119951;23;20353;-62
2023/12/21 07:01:53;;;;;;;17.85;7.82;;;4.80;96.70;;;;;;6132753;23;20024;-63
2023/12/21 07:09:47;;;;;;;;;;;;;;;;;;;;;
2023/12/21 07:13:44;;;;;;;15.80;7.28;;;4.70;96.70;;;;;;5921282;24;20029;-63
2023/12/21 07:21:01;;;;;;;15.20;7.00;;;4.80;96.70;;;;;;5920831;24;20020;-62
2023/12/21 07:25:29;;;;;;;15.30;8.05;;;4.70;96.70;;;;;;5812146;24;20137;-63
2023/12/21 07:27:36;;;;;;;20.10;7.95;;;4.70;96.70;;;;;;5899256;24;20123;-63
2023/12/21 07:30:54;;;;;;;17.98;7.40;;;4.60;96.70;;;;;;5925276;24;20771;-62
2023/12/21 07:33:45;;;;;;;21.95;9.10;;;4.60;96.70;;;;;;5947103;24;20140;-62
2023/12/21 07:36:43;;;;;;;19.10;8.90;;;4.70;96.70;;;;;;5925204;24;20349;-63
2023/12/21 07:39:15;;;;;;;16.90;8.43;;;4.80;96.70;;;;;;5880781;24;20052;-63
2023/12/21 07:41:47;;;;;;;17.52;7.32;;;4.80;96.70;;;;;;5925280;24;20032;-64
2023/12/21 07:44:35;;;;;;;21.73;8.13;;;4.80;96.70;;;;;;5935919;23;20029;-62
2023/12/21 07:47:06;;;;;;;18.20;8.55;;;4.80;96.70;;;;;;6089209;23;20033;-63
2023/12/21 07:49:36;;;;;;;22.67;8.48;;;4.80;96.70;;;;;;6139779;23;20411;-62
2023/12/21 07:52:07;;;;;;;11.25;7.65;;;4.80;96.70;;;;;;6166511;23;20466;-63
2023/12/21 07:59:24;;;;;;;11.20;7.35;;;4.80;96.70;;;;;;6147148;23;20108;-63
2023/12/21 08:02:56;;;;;;;;;;;;;;;;;;;;;
2023/12/21 08:06:23;;;;;;;8.90;6.47;;;4.90;96.70;;;;;;6146824;23;20732;-63
2023/12/21 08:09:24;;;;;;;9.57;6.05;;;5.00;96.70;;;;;;6118819;23;20385;-63
2023/12/21 08:17:03;;;;;;;13.75;6.30;;;5.00;96.70;;;;;;6146790;23;20060;-63
2023/12/21 08:19:44;;;;;;;23.35;7.32;;;4.90;96.70;;;;;;6194200;23;20095;-63
2023/12/21 08:22:17;;;;;;;12.48;6.60;;;4.90;96.70;;;;;;6192185;23;20024;-63
2023/12/21 08:24:48;;;;;;;9.57;6.45;;;4.90;96.70;;;;;;6215604;23;20043;-62
2023/12/21 08:27:55;;;;;;;11.30;6.13;;;5.00;96.70;;;;;;6223357;23;20035;-62
2023/12/21 08:30:27;;;;;;;14.48;6.88;;;4.90;96.70;;;;;;6215260;23;20036;-62
2023/12/21 08:33:18;;;;;;;10.48;6.63;;;5.00;96.70;;;;;;6214237;23;20047;-63
2023/12/21 08:35:48;;;;;;;10.68;6.25;;;5.10;96.70;;;;;;6190289;23;20020;-63
2023/12/21 08:42:10;;;;;;;13.52;7.22;;;5.20;96.70;;;;;;6214581;23;20047;-62
2023/12/21 08:44:50;;;;;;;13.23;7.13;;;5.20;96.70;;;;;;6215365;23;20209;-63
2023/12/21 08:47:39;;;;;;;;;;;;;;;;;;;;;
2023/12/21 08:54:24;;;;;;;9.27;6.47;;;5.40;96.70;;;;;;6214351;22;20505;-63
2023/12/21 08:57:42;;;;;;;14.90;8.30;;;5.40;96.70;;;;;;6179767;23;20039;-63
2023/12/21 09:00:16;;;;;;;10.20;6.93;;;5.40;96.70;;;;;;6215693;23;20020;-62
2023/12/21 09:02:46;;;;;;;9.85;6.97;;;5.30;96.70;;;;;;6208903;23;20028;-63
2023/12/21 09:09:46;;;;;;;14.45;7.95;;;5.50;96.70;;;;;;6093824;23;20068;-63
2023/12/21 09:13:02;;;;;;;16.33;7.32;;;5.50;96.70;;;;;;6060497;23;20192;-63
2023/12/21 09:15:32;;;;;;;16.90;7.13;;;5.50;96.70;;;;;;6097040;23;20062;-63
2023/12/21 09:19:32;;;;;;;12.80;7.63;;;5.60;96.70;;;;;;6147582;23;20026;-63
2023/12/21 09:43:25;;;;;;;10.88;8.32;;;5.60;96.70;;;;;;5977430;24;20015;-63
2023/12/21 09:45:58;;;;;;;12.18;7.95;;;5.80;96.70;;;;;;5954858;24;20055;-63
2023/12/21 09:48:28;;;;;;;11.50;8.45;;;5.80;96.70;;;;;;5976725;24;20811;-63
2023/12/21 09:51:02;;;;;;;13.45;8.18;;;5.80;96.70;;;;;;5962492;23;20475;-63
2023/12/21 09:53:50;;;;;;;14.18;9.13;;;5.80;96.70;;;;;;6033752;23;20114;-63
2023/12/21 09:57:05;;;;;;;13.23;8.57;;;5.90;96.70;;;;;;6018436;23;20042;-63
2023/12/21 09:59:35;;;;;;;11.18;7.93;;;5.90;96.70;;;;;;6062918;23;20028;-63
2023/12/21 10:06:51;;;;;;;14.25;9.18;;;6.10;96.70;;;;;;6168911;23;20028;-63
2023/12/21 10:09:58;;;;;;;13.95;9.35;;;6.10;96.70;;;;;;6102633;23;20037;-63
2023/12/21 10:12:58;;;;;;;23.85;10.25;;;6.30;96.70;;;;;;6071224;23;20034;-63
2023/12/21 10:16:18;;;;;;;16.05;9.38;;;6.20;96.70;;;;;;6070968;23;20066;-63
2023/12/21 10:18:50;;;;;;;12.55;9.82;;;6.30;96.70;;;;;;6206108;22;20032;-63
2023/12/21 10:21:19;;;;;;;19.20;10.23;;;6.40;96.70;;;;;;6162497;23;20020;-63
2023/12/21 10:23:50;;;;;;;20.70;11.68;;;6.40;96.70;;;;;;6154855;23;20020;-63
2023/12/21 10:26:30;;;;;;;22.50;11.32;;;6.40;96.70;;;;;;6178875;23;20542;-63
2023/12/21 10:28:58;;;;;;;25.75;11.77;;;6.50;96.70;;;;;;6179267;23;20029;-63
2023/12/21 10:31:27;;;;;;;21.70;12.70;;;6.40;96.70;;;;;;6177878;23;20075;-63
2023/12/21 10:33:57;;;;;;;25.83;13.70;;;6.40;96.70;;;;;;6153387;23;20072;-63
2023/12/21 10:36:26;;;;;;;17.65;12.05;;;6.50;96.70;;;;;;6153132;23;20017;-63
2023/12/21 10:38:56;;;;;;;22.20;13.93;;;6.60;96.70;;;;;;6152518;23;20514;-63
2023/12/21 10:41:25;;;;;;;30.42;16.75;;;6.60;96.70;;;;;;6153845;23;20028;-63
2023/12/21 10:43:55;;;;;;;23.98;16.23;;;6.60;96.70;;;;;;6105862;23;20036;-63
2023/12/21 10:46:28;;;;;;;27.05;17.45;;;6.60;96.70;;;;;;6177997;23;20124;-63
2023/12/21 10:49:10;;;;;;;;;;;;;;;;;;;;;
2023/12/21 10:51:43;;;;;;;35.40;20.38;;;6.80;96.70;;;;;;6151045;23;20534;-63
2023/12/21 10:54:18;;;;;;;29.65;20.80;;;6.80;96.70;;;;;;6138882;23;20032;-63
2023/12/21 10:56:47;;;;;;;32.30;20.50;;;6.80;96.70;;;;;;6185492;23;20116;-63
2023/12/21 10:59:43;;;;;;;27.10;18.73;;;6.70;96.70;;;;;;6190570;23;20051;-63
2023/12/21 11:06:43;;;;;;;31.08;20.25;;;6.90;96.70;;;;;;6154301;23;20395;-62
2023/12/21 11:22:48;;;;;;;;;;;;;;;;;;;;;
2023/12/21 11:25:40;;;;;;;34.30;21.08;;;7.30;96.70;;;;;;6045075;23;20078;-63
2023/12/21 11:28:08;;;;;;;;;;;7.30;96.70;;;;;;6078994;23;20029;-62
2023/12/21 11:30:53;;;;;;;29.52;19.55;;;7.30;96.70;;;;;;6009423;23;19932;-64
2023/12/21 11:33:28;;;;;;;29.02;19.90;;;7.40;96.70;;;;;;5987809;23;20546;-63
2023/12/21 11:35:57;;;;;;;31.77;20.70;;;7.50;96.70;;;;;;6012511;23;20024;-63
2023/12/21 11:38:46;;;;;;;25.85;19.33;;;7.60;96.70;;;;;;6105512;23;20457;-62
2023/12/21 11:41:24;;;;;;;25.77;19.38;;;7.80;96.70;;;;;;6106246;23;20021;-62
2023/12/21 11:44:06;;;;;;;25.10;18.73;;;7.90;96.70;;;;;;6152722;23;20465;-62
2023/12/21 11:46:36;;;;;;;24.27;18.70;;;8.10;96.70;;;;;;6103279;23;20018;-62
2023/12/21 11:53:36;;;;;;;;;;;;;;;;;;;;;
2023/12/21 12:04:59;;;;;;;;;;;;;;;;;;;;;
2023/12/21 12:08:20;;;;;;;17.52;14.18;;;9.10;96.70;;;;;;6191134;22;20118;-62
2023/12/21 12:16:00;;;;;;;21.10;14.45;;;9.40;96.70;;;;;;6031959;23;20063;-63
2023/12/21 12:26:51;;;;;;;;;;;;;;;;;;;;;
2023/12/21 12:30:22;;;;;;;18.63;14.60;;;9.60;96.70;;;;;;6032814;23;20027;-63
2023/12/21 12:34:17;;;;;;;18.77;14.07;;;9.80;96.70;;;;;;6132474;23;20076;-63
2023/12/21 12:37:02;;;;;;;22.40;14.95;;;9.90;96.70;;;;;;6124661;23;20834;-63
2023/12/21 12:39:57;;;;;;;19.52;15.32;;;10.00;96.70;;;;;;6105690;23;20423;-63
2023/12/21 12:46:35;;;;;;;22.80;16.08;;;10.20;96.70;;;;;;6074754;23;20430;-62
2023/12/21 12:49:04;;;;;;;19.25;15.60;;;10.20;96.70;;;;;;6100176;23;20017;-62
2023/12/21 12:55:09;;;;;;;22.17;14.55;;;10.30;96.70;;;;;;6200264;23;20025;-63
2023/12/21 12:57:48;;;;;;;18.67;15.73;;;10.30;96.70;;;;;;6190091;23;20529;-62
2023/12/21 13:00:23;;;;;;;22.88;18.73;;;10.10;96.70;;;;;;6190545;23;20024;-62
2023/12/21 13:07:11;;;;;;;21.50;15.73;;;10.10;96.70;;;;;;6144490;23;20103;-62
2023/12/21 13:10:30;;;;;;;20.80;16.85;;;10.10;96.70;;;;;;6243818;23;20347;-62
2023/12/21 13:13:19;;;;;;;22.10;17.20;;;10.20;96.70;;;;;;6098874;23;20089;-62
2023/12/21 13:16:52;;;;;;;20.30;16.95;;;10.20;96.70;;;;;;6032436;23;20114;-62
2023/12/21 13:19:47;;;;;;;21.23;17.08;;;10.10;96.70;;;;;;6014958;23;20038;-64
2023/12/21 13:22:15;;;;;;;26.20;19.13;;;10.20;96.70;;;;;;6010195;23;20033;-64
2023/12/21 13:24:43;;;;;;;24.15;19.25;;;10.30;96.70;;;;;;6144910;23;20122;-64
2023/12/21 13:27:12;;;;;;;22.30;17.30;;;10.30;96.70;;;;;;6191950;23;20103;-64
2023/12/21 13:29:42;;;;;;;24.65;19.45;;;10.30;96.70;;;;;;6217374;23;20024;-64
2023/12/21 13:32:11;;;;;;;24.05;16.77;;;10.30;96.70;;;;;;6192163;23;20118;-64
2023/12/21 13:34:40;;;;;;;20.67;15.98;;;10.30;96.70;;;;;;6216466;23;20032;-64
2023/12/21 13:37:11;;;;;;;20.60;17.42;;;10.20;96.70;;;;;;6167415;23;20016;-64
2023/12/21 13:39:40;;;;;;;20.45;16.58;;;10.20;96.70;;;;;;6192171;23;20451;-64
2023/12/21 13:42:09;;;;;;;23.63;17.67;;;10.10;96.70;;;;;;6217109;23;20082;-65
2023/12/21 13:44:37;;;;;;;21.42;17.63;;;10.10;96.70;;;;;;6215837;23;20094;-64
2023/12/21 13:47:06;;;;;;;23.73;19.38;;;10.00;96.70;;;;;;6190445;23;20024;-64
2023/12/21 13:49:34;;;;;;;21.48;17.80;;;10.10;96.70;;;;;;6192174;23;20020;-64
2023/12/21 13:52:24;;;;;;;24.35;20.33;;;10.10;96.70;;;;;;6217133;23;20024;-62
2023/12/21 13:56:35;;;;;;;25.30;20.10;;;10.10;96.70;;;;;;5960945;23;20082;-62
2023/12/21 14:03:07;;;;;;;;;;;;;;;;;;;;;
2023/12/21 14:09:48;;;;;;;24.23;18.60;;;9.80;96.70;;;;;;6038360;23;20395;-62
2023/12/21 14:12:50;;;;;;;25.00;19.25;;;9.80;96.70;;;;;;6055517;23;20110;-62
2023/12/21 14:15:30;;;;;;;20.23;17.85;;;9.90;96.70;;;;;;6061435;23;20105;-62
2023/12/21 14:22:39;;;;;;;25.00;19.30;;;10.00;96.70;;;;;;6017030;23;20031;-62
2023/12/21 14:29:12;;;;;;;23.30;18.95;;;10.00;96.70;;;;;;6150152;23;20332;-62
2023/12/21 14:32:20;;;;;;;25.77;19.90;;;10.00;96.70;;;;;;6101957;23;20037;-62
2023/12/21 14:35:00;;;;;;;26.20;21.05;;;10.00;96.70;;;;;;6097405;23;20656;-62
2023/12/21 14:37:33;;;;;;;27.63;20.75;;;10.00;96.70;;;;;;6094852;23;20136;-62
2023/12/21 14:41:12;;;;;;;;;;;;;;;;;;;;;
2023/12/21 14:44:24;;;;;;;25.02;21.10;;;9.90;96.70;;;;;;5975378;23;20032;-62
2023/12/21 14:47:47;;;;;;;26.45;21.73;;;9.90;96.70;;;;;;6004022;23;20091;-62
2023/12/21 14:55:25;;;;;;;38.40;27.85;;;9.90;96.70;;;;;;5921116;24;20074;-62
2023/12/21 15:10:53;;;;;;;31.75;21.90;;;9.60;96.70;;;;;;6007534;23;20124;-62
2023/12/21 15:14:50;;;;;;;28.48;21.90;;;9.50;96.70;;;;;;6076763;23;20461;-63
2023/12/21 15:18:36;;;;;;;38.97;29.00;;;9.40;96.70;;;;;;5981931;23;20545;-63
2023/12/21 15:21:17;;;;;;;45.60;32.20;;;9.40;96.70;;;;;;6008523;23;20026;-62
2023/12/21 15:23:47;;;;;;;37.15;29.35;;;9.30;96.70;;;;;;6101221;23;20032;-62
2023/12/21 15:27:42;;;;;;;33.03;24.73;;;9.20;96.70;;;;;;6211590;23;20043;-63
2023/12/21 15:31:19;;;;;;;31.75;23.55;;;9.20;96.70;;;;;;6188226;23;20075;-62
2023/12/21 15:33:52;;;;;;;34.80;24.20;;;9.10;96.70;;;;;;6185651;23;20046;-62
2023/12/21 15:36:46;;;;;;;;;;;;;;;;;;;;;
2023/12/21 15:41:14;;;;;;;28.92;22.80;;;9.00;96.70;;;;;;6222143;23;20038;-63
2023/12/21 15:44:50;;;;;;;30.42;24.42;;;8.90;96.70;;;;;;6188153;23;20095;-62
2023/12/21 15:48:19;;;;;;;28.88;22.30;;;8.80;96.70;;;;;;6043979;23;20053;-63
2023/12/21 15:50:55;;;;;;;31.75;23.42;;;8.80;96.70;;;;;;6015402;23;20397;-62
2023/12/21 15:57:29;;;;;;;;;;;;;;;;;;;;;
2023/12/21 15:59:59;;;;;;;34.65;24.42;;;8.60;96.70;;;;;;6004910;23;20027;-63
2023/12/21 16:03:14;;;;;;;33.35;24.20;;;8.60;96.70;;;;;;5943154;23;20120;-62
2023/12/21 16:10:07;;;;;;;32.25;24.45;;;8.50;96.70;;;;;;6004672;23;20037;-62
2023/12/21 16:12:47;;;;;;;;;;;;;;;;;;;;;
2023/12/21 16:27:26;;;;;;;36.80;23.85;;;8.20;96.70;;;;;;6140626;23;20124;-63
2023/12/21 16:30:41;;;;;;;28.80;22.08;;;8.20;96.70;;;;;;6190455;23;20513;-63
2023/12/21 16:33:10;;;;;;;33.75;23.33;;;8.20;96.70;;;;;;6185118;23;20103;-62
2023/12/21 16:35:40;;;;;;;43.28;28.67;;;8.20;96.70;;;;;;6186683;23;20406;-62
2023/12/21 16:38:58;;;;;;;29.50;22.20;;;8.10;96.70;;;;;;6191749;23;20028;-62
2023/12/21 16:41:29;;;;;;;29.52;21.05;;;8.10;96.70;;;;;;6187200;23;20025;-62
2023/12/21 16:44:00;;;;;;;30.70;23.27;;;8.10;96.70;;;;;;6138874;23;20025;-62
2023/12/21 16:46:30;;;;;;;36.20;24.88;;;8.10;96.70;;;;;;6163256;23;20120;-62
2023/12/21 16:48:59;;;;;;;44.45;27.80;;;8.10;96.70;;;;;;6188340;23;20663;-62
2023/12/21 16:51:31;;;;;;;48.90;31.70;;;8.10;96.70;;;;;;6188147;23;20020;-62
2023/12/21 16:54:02;;;;;;;41.80;28.98;;;8.10;96.70;;;;;;6187786;23;20030;-62
2023/12/21 16:56:32;;;;;;;52.45;33.80;;;8.20;96.70;;;;;;6162983;23;20032;-63
2023/12/21 16:59:28;;;;;;;46.83;29.70;;;8.10;96.70;;;;;;6228298;23;20032;-63
2023/12/21 17:01:56;;;;;;;44.80;30.30;;;8.10;96.70;;;;;;6213262;23;20235;-62
2023/12/21 17:04:36;;;;;;;51.30;33.03;;;8.10;96.70;;;;;;6213644;23;20412;-62
2023/12/21 17:07:20;;;;;;;51.45;33.28;;;8.10;96.70;;;;;;6210971;23;20047;-63
2023/12/21 17:09:49;;;;;;;53.10;35.55;;;8.00;96.70;;;;;;6187807;23;20399;-62
2023/12/21 17:12:19;;;;;;;49.20;31.48;;;7.90;96.70;;;;;;6187205;23;20031;-62
2023/12/21 17:14:49;;;;;;;48.92;32.42;;;7.90;96.70;;;;;;6162719;23;20150;-63
2023/12/21 17:17:19;;;;;;;47.72;32.60;;;7.90;96.70;;;;;;6187012;23;20047;-62
2023/12/21 17:20:21;;;;;;;46.63;32.10;;;7.90;96.70;;;;;;6084701;23;20037;-62
2023/12/21 17:22:50;;;;;;;60.15;36.05;;;7.80;96.70;;;;;;6222495;23;20025;-62
2023/12/21 17:25:20;;;;;;;51.88;33.60;;;7.80;96.70;;;;;;6211331;23;20118;-62
2023/12/21 17:27:59;;;;;;;;;;;;;;;;;;;;;
2023/12/21 17:31:36;;;;;;;44.35;30.30;;;7.80;96.70;;;;;;6211020;23;20690;-62
2023/12/21 17:34:01;;;;;;;48.42;30.15;;;7.80;96.70;;;;;;6209098;23;20020;-63
2023/12/21 17:37:12;;;;;;;40.75;29.65;;;7.70;96.70;;;;;;6212690;23;20094;-62
2023/12/21 17:40:20;;;;;;;43.13;29.05;;;7.70;96.70;;;;;;6163485;23;20032;-62
2023/12/21 17:43:21;;;;;;;45.67;31.02;;;7.70;96.70;;;;;;6211714;23;20075;-62
2023/12/21 17:46:02;;;;;;;;;;;;;;;;;;;;;
2023/12/21 17:48:54;;;;;;;45.17;34.00;;;7.70;96.70;;;;;;6209948;23;20052;-62
2023/12/21 17:51:22;;;;;;;49.00;35.30;;;7.70;96.70;;;;;;6210848;23;20132;-62
2023/12/21 17:53:52;;;;;;;53.13;35.92;;;7.70;96.70;;;;;;6187474;23;20044;-62
2023/12/21 17:56:43;;;;;;;44.45;33.55;;;7.70;96.70;;;;;;6203540;22;20044;-62
2023/12/21 18:11:44;;;;;;;47.35;34.85;;;7.70;96.70;;;;;;6196665;23;20025;-62
2023/12/21 18:15:11;;;;;;;54.65;36.58;;;7.80;96.70;;;;;;6211184;23;20155;-62
2023/12/21 18:17:52;;;;;;;49.08;33.78;;;7.80;96.70;;;;;;6186506;23;20021;-62
2023/12/21 18:20:57;;;;;;;43.83;30.08;;;7.70;96.70;;;;;;6195511;23;20171;-61
2023/12/21 18:23:42;;;;;;;42.45;29.70;;;7.70;96.70;;;;;;6211648;23;20029;-62
2023/12/21 18:26:11;;;;;;;44.90;29.48;;;7.70;96.70;;;;;;6105826;23;20040;-62
2023/12/21 18:28:52;;;;;;;;;;;;;;;;;;;;;
2023/12/21 18:32:48;;;;;;;52.80;35.15;;;7.70;96.70;;;;;;6210411;23;20021;-63
2023/12/21 18:35:15;;;;;;;63.97;41.25;;;7.80;96.70;;;;;;6210773;23;20074;-62
2023/12/21 18:37:45;;;;;;;72.60;45.20;;;7.70;96.70;;;;;;6210304;23;20086;-62
2023/12/21 18:40:16;;;;;;;68.20;43.85;;;7.80;96.70;;;;;;6185909;23;20169;-62
2023/12/21 18:43:12;;;;;;;61.38;40.80;;;7.80;96.70;;;;;;6189610;23;20032;-61
2023/12/21 18:47:02;;;;;;;;;;;;;;;;;;;;;
2023/12/21 18:54:29;;;;;;;48.67;32.67;;;7.80;96.70;;;;;;6212769;23;20516;-62
2023/12/21 18:57:02;;;;;;;53.00;35.97;;;7.80;96.70;;;;;;6186540;23;20024;-62
2023/12/21 18:59:31;;;;;;;53.25;36.65;;;7.80;96.70;;;;;;6137860;23;20033;-62
2023/12/21 19:02:02;;;;;;;54.20;38.13;;;7.80;96.70;;;;;;6185825;23;20024;-62
2023/12/21 19:04:38;;;;;;;50.00;35.65;;;7.80;96.70;;;;;;6186257;23;20399;-62
2023/12/21 19:07:07;;;;;;;52.90;36.60;;;7.80;96.70;;;;;;6185955;23;20029;-61
2023/12/21 19:09:38;;;;;;;52.95;37.50;;;7.80;96.70;;;;;;6186289;23;20048;-61
2023/12/21 19:24:49;;;;;;;49.00;33.78;;;7.80;96.70;;;;;;6213028;23;20139;-62
2023/12/21 19:28:29;;;;;;;;;;;;;;;;;;;;;
2023/12/21 19:31:24;;;;;;;50.97;35.72;;;7.80;96.70;;;;;;6210159;23;20462;-62
2023/12/21 19:38:24;;;;;;;53.90;36.95;;;7.80;96.70;;;;;;6211576;23;20067;-61
2023/12/21 19:42:02;;;;;;;;;;;;;;;;;;;;;
2023/12/21 19:45:01;;;;;;;56.90;40.13;;;7.80;96.70;;;;;;6094231;23;20026;-61
2023/12/21 19:48:05;;;;;;;58.85;38.13;;;7.90;96.70;;;;;;6031673;23;20170;-62
2023/12/21 19:50:39;;;;;;;63.28;43.90;;;7.90;96.70;;;;;;5985362;23;20034;-62
2023/12/21 19:53:21;;;;;;;53.38;39.20;;;7.90;96.70;;;;;;6011084;23;20118;-62
2023/12/21 19:57:18;;;;;;;58.72;39.30;;;8.00;96.70;;;;;;5930817;24;20170;-62
2023/12/21 20:00:36;;;;;;;58.05;40.10;;;8.00;96.70;;;;;;6001404;23;20029;-62
2023/12/21 20:08:20;;;;;;;64.88;41.85;;;7.90;96.70;;;;;;6032098;23;20833;-62